Taylorville, IL (62568)

9:37 PM CDT on May 28, 2015 (GMT -0500)
RURAL KINCAID IL USA | | Change Station
CLOSE
Current Station
Personal Weather Station
Location: PAWNEE, IL
Elevation: 610 ft
Nearby Weather Stations

Elev 610 ft 39.57 °N, 89.43 °W | Updated 2 minutes ago

Scattered Clouds
Scattered Clouds
74.8 °F
Feels Like 77 °F
N
1.0
Wind Variable Wind from NE
Gusts 1.0 mph

Today
High -- | Low -- °F
--% Chance of Precip.
Yesterday
High -- | Low -- °F
Precip. -- in
5:33 AM 8:15 PM
Waxing Gibbous, 80% visible
Pressure 30.07 in
Visibility 10.0 miles
Clouds Scattered Clouds 4500 ft
Scattered Clouds 6000 ft
Heat Index 77 °F
Dew Point 59 °F
Humidity 57%
Rainfall 0.00 in
Snow Depth Not available.
UV 0 out of 12
Pollen 8.80 out of 12
Air Quality Not available.
Flu Activity Sporadic
METAR KTAZ 290215Z AUTO 13005KT 10SM SCT045 SCT060 22/18 A3007 RMK AO2

More Conditions Fewer Conditions

Pressure 30.07 in
Visibility 10.0 miles
Clouds Scattered Clouds 4500 ft
Scattered Clouds 6000 ft
Heat Index 77 °F
Dew Point 59 °F
Humidity 57%
Rainfall 0.00 in
Snow Depth Not available.
UV 0 out of 12
Pollen 8.80 out of 12
Air Quality Not available.
Flu Activity Sporadic
METAR KTAZ 290215Z AUTO 13005KT 10SM SCT045 SCT060 22/18 A3007 RMK AO2

More Conditions Fewer Conditions

10-Day Weather Forecast

Almanac

Astronomy

May. 28, 2015 Rise Set
Actual Time
Civil Twilight
Nautical Twilight
Astronomical Twilight
Moon
Length of Visible Light
Length of Day
Tomorrow will be .
, % of the Moon is Illuminated

Today's Extremes

State Highs State Lows

Community

WunderPhotos

Upload Photos

1,825,144 photos uploaded!

WunderBlogs® & News

Nearby

Air Quality

  Air Quality AQ Index Pollutant
Not available.

Snow Depth

Station Depth Elevation

Earthquake Activity

City Distance Mag. Time & Date
Minimum magnitude displayed is 2.5.

Coastal Water Temperatures

Place Temperature

Stations

Nearby Weather Stations

Station Location Temp. Windchill Dew Point Humidity Wind Precip. Elev Updated Type